createdAt,value
2018-10-11T00:01:15.375Z,14.14
2018-10-11T00:03:45.461Z,14.01
2018-10-11T00:06:16.537Z,13.86
2018-10-11T00:08:46.898Z,13.76
2018-10-11T00:11:16.916Z,13.90
2018-10-11T00:13:46.935Z,14.04
2018-10-11T00:16:17.932Z,14.12
2018-10-11T00:18:47.812Z,14.22
2018-10-11T00:21:17.937Z,14.09
2018-10-11T00:23:47.958Z,14.13
2018-10-11T00:26:19.223Z,14.04
2018-10-11T00:28:49.234Z,14.11
2018-10-11T00:31:19.350Z,13.93
2018-10-11T00:33:49.501Z,14.01
2018-10-11T00:36:20.606Z,13.32
2018-10-11T00:38:50.583Z,13.07
2018-10-11T00:41:20.558Z,12.63
2018-10-11T00:43:50.575Z,12.87
2018-10-11T00:46:21.187Z,13.16
2018-10-11T00:48:51.237Z,13.12
2018-10-11T00:51:21.233Z,12.87
2018-10-11T00:53:51.200Z,12.52
2018-10-11T00:56:21.174Z,12.32
2018-10-11T00:58:51.274Z,12.83
2018-10-11T01:01:21.405Z,12.90
2018-10-11T01:03:51.499Z,12.86
2018-10-11T01:06:21.729Z,12.75
2018-10-11T01:08:52.065Z,12.54
2018-10-11T01:11:22.132Z,12.75
2018-10-11T01:13:52.208Z,12.75
2018-10-11T01:16:23.352Z,12.48
2018-10-11T01:18:53.283Z,12.35
2018-10-11T01:21:23.275Z,12.39
2018-10-11T01:23:53.327Z,12.65
2018-10-11T01:26:24.030Z,12.82
2018-10-11T01:28:54.165Z,12.82
2018-10-11T01:31:25.310Z,12.90
2018-10-11T01:33:55.482Z,12.85
2018-10-11T01:36:26.512Z,12.84
2018-10-11T01:38:56.704Z,12.74
2018-10-11T01:41:26.766Z,12.81
2018-10-11T01:43:56.936Z,12.83
2018-10-11T01:46:27.313Z,12.67
2018-10-11T01:48:57.551Z,12.62
2018-10-11T01:51:27.625Z,12.47
2018-10-11T01:53:57.599Z,12.57
2018-10-11T01:56:28.085Z,12.66
2018-10-11T01:58:58.103Z,12.73
2018-10-11T02:01:28.154Z,12.67
2018-10-11T02:03:58.095Z,12.70
2018-10-11T02:06:28.867Z,12.73
2018-10-11T02:08:59.279Z,12.75
2018-10-11T02:11:29.397Z,12.49
2018-10-11T02:13:59.455Z,12.54
2018-10-11T02:16:29.524Z,12.67
2018-10-11T02:18:59.538Z,11.08
2018-10-11T02:21:29.681Z,12.83
2018-10-11T02:23:59.719Z,12.92
2018-10-11T02:26:30.063Z,13.01
2018-10-11T02:29:00.163Z,12.93
2018-10-11T02:31:30.152Z,12.83
2018-10-11T02:34:00.091Z,12.42
2018-10-11T02:36:30.715Z,12.83
2018-10-11T02:39:00.772Z,12.96
2018-10-11T02:41:30.696Z,13.00
2018-10-11T02:44:00.758Z,12.84
2018-10-11T02:46:31.258Z,12.56
2018-10-11T02:49:01.279Z,12.58
2018-10-11T02:51:31.403Z,12.66
2018-10-11T02:54:01.553Z,12.78
2018-10-11T02:56:32.852Z,12.79
2018-10-11T02:59:18.461Z,12.39
2018-10-11T03:01:48.722Z,12.59
2018-10-11T03:04:18.904Z,12.62
2018-10-11T03:06:49.170Z,12.61
2018-10-11T03:09:20.444Z,12.53
2018-10-11T03:11:50.590Z,12.01
2018-10-11T03:14:20.626Z,12.36
2018-10-11T03:16:51.344Z,12.24
2018-10-11T03:19:21.479Z,11.95
2018-10-11T03:21:51.565Z,12.00
2018-10-11T03:24:21.556Z,12.14
2018-10-11T03:26:54.375Z,11.84
2018-10-11T03:29:24.371Z,11.36
2018-10-11T03:31:54.213Z,10.97
2018-10-11T03:34:24.382Z,10.94
2018-10-11T03:36:54.631Z,11.17
2018-10-11T03:39:24.475Z,11.02
2018-10-11T03:41:54.543Z,10.87
2018-10-11T03:44:24.550Z,10.98
2018-10-11T03:46:55.459Z,11.61
2018-10-11T03:49:25.947Z,11.94
2018-10-11T03:51:56.000Z,11.58
2018-10-11T03:54:26.188Z,11.36
2018-10-11T03:56:56.265Z,11.04
2018-10-11T03:59:27.301Z,11.14
2018-10-11T04:01:57.351Z,11.58
2018-10-11T04:04:27.280Z,11.79
2018-10-11T04:06:57.534Z,11.59
2018-10-11T04:09:27.894Z,11.14
2018-10-11T04:11:57.946Z,11.01
2018-10-11T04:14:27.913Z,11.30
2018-10-11T04:16:58.722Z,11.44
2018-10-11T04:19:28.798Z,11.75
2018-10-11T04:21:58.843Z,11.04
2018-10-11T04:24:28.866Z,10.45
2018-10-11T04:26:58.968Z,10.08
2018-10-11T04:29:28.953Z,9.49
2018-10-11T04:31:59.001Z,9.09
2018-10-11T04:34:29.017Z,9.40
2018-10-11T04:37:00.133Z,9.57
2018-10-11T04:39:30.177Z,9.53
2018-10-11T04:42:00.204Z,9.73
2018-10-11T04:44:34.222Z,10.24
2018-10-11T04:47:05.912Z,10.47
2018-10-11T04:49:36.405Z,10.55
2018-10-11T04:52:06.501Z,10.97
2018-10-11T04:54:36.515Z,11.01
2018-10-11T04:57:06.985Z,11.14
2018-10-11T04:59:36.999Z,11.22
2018-10-11T05:02:07.076Z,10.78
2018-10-11T05:04:37.094Z,11.03
2018-10-11T05:07:07.672Z,10.67
2018-10-11T05:09:37.902Z,10.96
2018-10-11T05:12:08.303Z,11.16
2018-10-11T05:14:38.531Z,11.36
2018-10-11T05:17:09.631Z,11.44
2018-10-11T05:19:41.388Z,11.53
2018-10-11T05:22:11.391Z,11.46
2018-10-11T05:24:41.329Z,11.51
2018-10-11T05:27:11.559Z,11.78
2018-10-11T05:29:41.646Z,12.05
2018-10-11T05:32:11.594Z,12.14
2018-10-11T05:34:41.610Z,12.30
2018-10-11T05:37:12.612Z,12.60
2018-10-11T05:39:42.660Z,12.47
2018-10-11T05:42:13.132Z,12.56
2018-10-11T05:44:44.365Z,12.24
2018-10-11T05:47:15.443Z,13.43
2018-10-11T05:49:45.536Z,13.68
2018-10-11T05:52:15.892Z,13.16
2018-10-11T05:54:46.121Z,13.48
2018-10-11T05:57:16.631Z,13.38
2018-10-11T05:59:47.077Z,14.54
2018-10-11T06:02:17.272Z,14.96
2018-10-11T06:04:47.490Z,14.41
2018-10-11T06:07:18.858Z,13.85
2018-10-11T06:09:49.294Z,14.35
2018-10-11T06:12:19.491Z,14.20
2018-10-11T06:14:49.636Z,14.71
2018-10-11T06:17:20.273Z,14.46
2018-10-11T06:19:50.343Z,14.71
2018-10-11T06:22:20.504Z,15.71
2018-10-11T06:24:50.558Z,16.63
2018-10-11T06:27:21.090Z,17.18
2018-10-11T06:29:51.135Z,16.81
2018-10-11T06:32:21.343Z,17.47
2018-10-11T06:34:51.548Z,18.71
2018-10-11T06:37:22.264Z,18.00
2018-10-11T06:39:52.497Z,18.46
2018-10-11T06:42:22.763Z,18.42
2018-10-11T06:44:53.144Z,17.70
2018-10-11T06:47:23.784Z,18.24
2018-10-11T06:49:54.115Z,18.52
2018-10-11T06:52:24.258Z,18.49
2018-10-11T06:54:54.379Z,17.52
2018-10-11T06:57:24.490Z,19.08
2018-10-11T06:59:54.660Z,19.60
2018-10-11T07:02:24.771Z,19.48
2018-10-11T07:04:54.855Z,19.73
2018-10-11T07:07:25.034Z,19.85
2018-10-11T07:09:55.504Z,20.58
2018-10-11T07:12:25.749Z,20.82
2018-10-11T07:14:55.688Z,20.46
2018-10-11T07:17:25.679Z,21.36
2018-10-11T07:19:55.589Z,21.51
2018-10-11T07:22:25.548Z,21.23
2018-10-11T07:24:55.583Z,21.56
2018-10-11T07:27:26.069Z,22.60
2018-10-11T07:29:56.135Z,23.25
2018-10-11T07:32:26.139Z,23.80
2018-10-11T07:34:56.284Z,23.79
2018-10-11T07:37:26.783Z,24.16
2018-10-11T07:39:56.887Z,23.80
2018-10-11T07:42:26.840Z,23.50
2018-10-11T07:44:56.803Z,23.57
2018-10-11T07:47:27.494Z,23.91
2018-10-11T07:49:57.516Z,23.83
2018-10-11T07:52:27.371Z,24.41
2018-10-11T07:54:57.400Z,25.05
2018-10-11T07:57:27.376Z,26.04
2018-10-11T07:59:57.362Z,26.16
2018-10-11T08:02:27.393Z,26.61
2018-10-11T08:04:57.467Z,26.68
2018-10-11T08:07:27.775Z,26.02
2018-10-11T08:09:58.022Z,26.52
2018-10-11T08:12:28.143Z,26.69
2018-10-11T08:14:58.106Z,27.51
2018-10-11T08:17:28.582Z,26.75
2018-10-11T08:19:58.343Z,27.45
2018-10-11T08:22:28.544Z,27.49
2018-10-11T08:24:59.026Z,27.89
2018-10-11T08:27:29.498Z,27.89
2018-10-11T08:29:59.576Z,28.09
2018-10-11T08:32:29.860Z,28.02
2018-10-11T08:34:59.712Z,28.21
2018-10-11T08:37:30.147Z,29.72
2018-10-11T08:40:00.095Z,29.51
2018-10-11T08:42:29.991Z,28.86
2018-10-11T08:44:59.881Z,29.02
2018-10-11T08:47:29.787Z,29.25
2018-10-11T08:49:59.803Z,30.63
2018-10-11T08:52:29.612Z,30.73
2018-10-11T08:54:59.778Z,30.45
2018-10-11T08:57:29.812Z,30.19
2018-10-11T08:59:59.843Z,30.35
2018-10-11T09:02:29.803Z,29.83
2018-10-11T09:04:59.775Z,30.25
2018-10-11T09:07:29.649Z,30.58
2018-10-11T09:09:59.594Z,30.86
2018-10-11T09:12:29.764Z,30.40
2018-10-11T09:14:59.553Z,30.71
2018-10-11T09:17:29.650Z,30.73
2018-10-11T09:19:59.688Z,32.52
2018-10-11T09:22:29.643Z,32.26
2018-10-11T09:24:59.651Z,32.23
2018-10-11T09:27:30.518Z,33.30
2018-10-11T09:30:00.552Z,32.97
2018-10-11T09:32:30.615Z,32.40
2018-10-11T09:35:00.593Z,33.79
2018-10-11T09:37:31.309Z,33.14
2018-10-11T09:40:01.320Z,32.68
2018-10-11T09:42:31.436Z,32.69
2018-10-11T09:45:01.520Z,32.35
2018-10-11T09:47:31.744Z,31.98
2018-10-11T09:50:01.633Z,32.87
2018-10-11T09:52:31.598Z,34.21
2018-10-11T09:55:01.481Z,33.99
2018-10-11T09:57:35.430Z,34.05
2018-10-11T10:01:08.966Z,33.57
2018-10-11T10:03:38.961Z,33.00
2018-10-11T10:06:09.159Z,33.50
2018-10-11T10:08:39.371Z,33.94
2018-10-11T10:11:09.516Z,33.12
2018-10-11T10:13:39.986Z,34.20
2018-10-11T10:16:10.459Z,31.60
2018-10-11T10:18:40.511Z,30.43
2018-10-11T10:21:10.540Z,30.62
2018-10-11T10:23:40.538Z,29.81
2018-10-11T10:26:10.857Z,30.04
2018-10-11T10:28:40.870Z,30.32
2018-10-11T10:31:10.678Z,31.26
2018-10-11T10:33:40.681Z,31.53
2018-10-11T10:36:10.974Z,32.25
2018-10-11T10:38:40.899Z,33.48
2018-10-11T10:41:10.942Z,32.78
2018-10-11T10:43:41.091Z,32.93
2018-10-11T10:46:11.266Z,33.20
2018-10-11T10:48:41.311Z,33.17
2018-10-11T10:51:11.321Z,32.45
2018-10-11T10:53:41.379Z,32.60
2018-10-11T10:56:12.340Z,32.43
2018-10-11T10:58:42.346Z,32.73
2018-10-11T11:01:12.298Z,33.27
2018-10-11T11:03:42.274Z,33.99
2018-10-11T11:06:12.435Z,33.09
2018-10-11T11:08:42.408Z,32.96
2018-10-11T11:11:12.424Z,32.50
2018-10-11T11:13:42.738Z,30.93
2018-10-11T11:16:13.630Z,29.58
2018-10-11T11:18:43.618Z,28.55
2018-10-11T11:21:13.617Z,28.45
2018-10-11T11:23:43.626Z,27.37
2018-10-11T11:26:13.937Z,25.99
2018-10-11T11:28:43.994Z,25.43
2018-10-11T11:31:14.066Z,26.07
2018-10-11T11:33:44.165Z,25.51
2018-10-11T11:36:14.908Z,25.68
2018-10-11T11:38:44.902Z,24.91
2018-10-11T11:41:14.983Z,25.49
2018-10-11T11:43:45.108Z,25.52
2018-10-11T11:46:16.046Z,24.64
2018-10-11T11:48:46.143Z,23.87
2018-10-11T11:51:16.231Z,23.70
2018-10-11T11:53:46.403Z,23.65
2018-10-11T11:56:16.475Z,24.27
2018-10-11T11:58:46.457Z,24.19
2018-10-11T12:01:19.210Z,24.13
2018-10-11T12:03:49.311Z,23.63
2018-10-11T12:06:19.397Z,23.56
2018-10-11T12:08:49.487Z,23.54
2018-10-11T12:11:19.447Z,22.96
2018-10-11T12:13:49.691Z,22.91
2018-10-11T12:16:20.743Z,23.14
2018-10-11T12:18:50.769Z,23.07
2018-10-11T12:21:20.824Z,22.59
2018-10-11T12:23:51.085Z,23.18
2018-10-11T12:26:21.641Z,23.00
2018-10-11T12:28:51.731Z,23.14
2018-10-11T12:31:21.762Z,23.68
2018-10-11T12:33:52.010Z,24.22
2018-10-11T12:36:23.114Z,24.17
2018-10-11T12:38:53.203Z,24.07
2018-10-11T12:41:23.253Z,23.49
2018-10-11T12:43:53.235Z,23.40
2018-10-11T12:46:24.254Z,23.32
2018-10-11T12:48:54.276Z,23.33
2018-10-11T12:51:24.322Z,23.85
2018-10-11T12:53:54.394Z,24.13
2018-10-11T12:56:24.460Z,24.09
2018-10-11T12:58:55.693Z,23.71
2018-10-11T13:01:25.721Z,23.26
2018-10-11T13:03:55.760Z,23.05
2018-10-11T13:06:25.899Z,23.33
2018-10-11T13:08:55.996Z,23.19
2018-10-11T13:11:26.046Z,23.53
2018-10-11T13:13:56.204Z,23.57
2018-10-11T13:16:27.035Z,23.38
2018-10-11T13:18:56.936Z,23.17
2018-10-11T13:21:26.921Z,23.26
2018-10-11T13:23:56.873Z,23.51
2018-10-11T13:26:27.801Z,23.36
2018-10-11T13:28:57.790Z,23.32
2018-10-11T13:31:27.764Z,23.01
2018-10-11T13:33:57.863Z,23.43
2018-10-11T13:36:28.472Z,23.19
2018-10-11T13:38:58.566Z,22.94
2018-10-11T13:41:28.740Z,23.16
2018-10-11T13:43:58.727Z,23.20
2018-10-11T13:46:29.203Z,23.92
2018-10-11T13:48:59.149Z,24.02
2018-10-11T13:51:29.527Z,23.87
2018-10-11T13:53:59.850Z,24.56
2018-10-11T13:56:30.042Z,24.67
2018-10-11T13:59:00.561Z,24.87
2018-10-11T14:01:30.294Z,24.62
2018-10-11T14:04:00.734Z,23.39
2018-10-11T14:06:31.492Z,23.03
2018-10-11T14:09:01.511Z,23.27
2018-10-11T14:11:31.607Z,23.28
2018-10-11T14:14:01.935Z,23.28
2018-10-11T14:16:32.072Z,22.95
2018-10-11T14:19:02.097Z,22.37
2018-10-11T14:21:32.267Z,22.78
2018-10-11T14:24:02.475Z,23.11
2018-10-11T14:26:33.438Z,22.65
2018-10-11T14:29:03.656Z,22.89
2018-10-11T14:31:33.854Z,23.06
2018-10-11T14:34:04.082Z,22.99
2018-10-11T14:36:35.118Z,22.83
2018-10-11T14:39:06.708Z,22.81
2018-10-11T14:41:36.784Z,22.87
2018-10-11T14:44:07.253Z,22.67
2018-10-11T14:46:37.595Z,22.81
2018-10-11T14:49:07.537Z,22.89
2018-10-11T14:51:40.813Z,23.00
2018-10-11T14:54:07.803Z,22.84
2018-10-11T14:56:38.684Z,22.60
2018-10-11T14:59:08.792Z,22.51
2018-10-11T15:01:38.850Z,22.62
2018-10-11T15:04:08.847Z,22.69
2018-10-11T15:06:39.839Z,22.59
2018-10-11T15:09:11.187Z,22.45
2018-10-11T15:11:41.437Z,22.22
2018-10-11T15:14:11.440Z,22.36
2018-10-11T15:16:41.490Z,22.18
2018-10-11T15:19:11.547Z,22.04
2018-10-11T15:21:41.650Z,22.22
2018-10-11T15:24:11.620Z,22.27
2018-10-11T15:26:42.399Z,22.17
2018-10-11T15:29:12.496Z,22.19
2018-10-11T15:31:42.591Z,22.22
2018-10-11T15:34:12.637Z,22.18
2018-10-11T15:36:43.821Z,21.97
2018-10-11T15:39:14.413Z,21.86
2018-10-11T15:41:44.386Z,21.98
2018-10-11T15:44:14.211Z,21.79
2018-10-11T15:46:45.129Z,21.56
2018-10-11T15:49:15.252Z,21.74
2018-10-11T15:51:45.284Z,21.92
2018-10-11T15:54:15.268Z,21.90
2018-10-11T15:56:45.877Z,21.89
2018-10-11T15:59:15.974Z,21.92
2018-10-11T16:01:45.977Z,21.92
2018-10-11T16:04:15.858Z,21.66
2018-10-11T16:06:46.704Z,21.00
2018-10-11T16:09:16.822Z,21.05
2018-10-11T16:11:46.749Z,21.05
2018-10-11T16:14:17.156Z,21.24
2018-10-11T16:16:47.156Z,21.02
2018-10-11T16:19:17.146Z,20.60
2018-10-11T16:21:47.215Z,20.65
2018-10-11T16:24:17.218Z,20.56
2018-10-11T16:26:47.410Z,20.67
2018-10-11T16:29:17.442Z,20.77
2018-10-11T16:31:47.413Z,20.52
2018-10-11T16:34:17.437Z,20.46
2018-10-11T16:36:48.098Z,20.46
2018-10-11T16:39:18.061Z,20.46
2018-10-11T16:41:48.066Z,20.20
2018-10-11T16:44:17.999Z,20.29
2018-10-11T16:46:49.026Z,20.59
2018-10-11T16:49:18.976Z,20.37
2018-10-11T16:51:48.932Z,20.39
2018-10-11T16:54:19.046Z,20.33
2018-10-11T16:56:50.067Z,20.33
2018-10-11T16:59:20.070Z,20.40
2018-10-11T17:01:50.127Z,20.15
2018-10-11T17:04:20.112Z,20.30
2018-10-11T17:06:51.251Z,20.38
2018-10-11T17:09:21.340Z,20.68
2018-10-11T17:11:51.378Z,20.89
2018-10-11T17:14:21.711Z,20.53
2018-10-11T17:16:52.075Z,20.68
2018-10-11T17:19:22.047Z,20.82
2018-10-11T17:21:52.153Z,20.83
2018-10-11T17:24:22.081Z,20.79
2018-10-11T17:26:52.992Z,20.63
2018-10-11T17:29:23.082Z,20.62
2018-10-11T17:31:53.137Z,20.70
2018-10-11T17:34:23.182Z,20.74
2018-10-11T17:36:53.662Z,20.91
2018-10-11T17:39:23.764Z,20.87
2018-10-11T17:41:53.731Z,20.39
2018-10-11T17:44:23.733Z,20.30
2018-10-11T17:46:53.978Z,20.39
2018-10-11T17:49:24.022Z,20.49
2018-10-11T17:51:54.007Z,20.29
2018-10-11T17:54:24.063Z,20.34
2018-10-11T17:56:54.553Z,20.42
2018-10-11T17:59:24.680Z,20.06
2018-10-11T18:01:54.798Z,20.02
2018-10-11T18:04:24.852Z,20.29
2018-10-11T18:06:55.181Z,20.06
2018-10-11T18:09:25.141Z,18.64
2018-10-11T18:11:55.099Z,20.23
2018-10-11T18:14:25.617Z,20.34
2018-10-11T18:16:56.102Z,20.44
2018-10-11T18:19:26.110Z,20.11
2018-10-11T18:21:56.275Z,20.20
2018-10-11T18:24:26.294Z,20.32
2018-10-11T18:26:56.667Z,19.98
2018-10-11T18:29:26.711Z,19.83
2018-10-11T18:31:56.608Z,20.04
2018-10-11T18:34:26.531Z,20.21
2018-10-11T18:36:57.806Z,20.19
2018-10-11T18:39:27.764Z,19.31
2018-10-11T18:41:57.780Z,19.18
2018-10-11T18:44:27.722Z,19.43
2018-10-11T18:46:58.549Z,19.89
2018-10-11T18:49:28.590Z,20.17
2018-10-11T18:51:58.670Z,20.32
2018-10-11T18:54:28.763Z,20.40
2018-10-11T18:56:59.318Z,20.35
2018-10-11T18:59:29.497Z,19.58
2018-10-11T19:01:59.547Z,19.58
2018-10-11T19:04:29.435Z,19.51
2018-10-11T19:07:00.575Z,19.42
2018-10-11T19:09:30.532Z,18.92
2018-10-11T19:12:00.574Z,18.95
2018-10-11T19:14:30.717Z,19.24
2018-10-11T19:17:00.699Z,18.92
2018-10-11T19:19:30.794Z,19.10
2018-10-11T19:22:00.762Z,19.41
2018-10-11T19:24:30.799Z,19.72
2018-10-11T19:27:01.697Z,19.50
2018-10-11T19:29:31.405Z,19.08
2018-10-11T19:32:01.403Z,18.86
2018-10-11T19:34:31.516Z,18.84
2018-10-11T19:37:02.327Z,18.64
2018-10-11T19:39:32.384Z,18.64
2018-10-11T19:42:02.444Z,18.62
2018-10-11T19:44:32.366Z,18.98
2018-10-11T19:47:03.070Z,18.65
2018-10-11T19:49:33.068Z,19.03
2018-10-11T19:52:03.139Z,19.41
2018-10-11T19:54:33.201Z,19.35
2018-10-11T19:57:03.265Z,19.22
2018-10-11T19:59:33.349Z,19.47
2018-10-11T20:02:03.479Z,19.63
2018-10-11T20:04:33.647Z,19.66
2018-10-11T20:07:04.808Z,19.76
2018-10-11T20:09:34.966Z,19.71
2018-10-11T20:12:05.027Z,19.81
2018-10-11T20:14:35.440Z,19.67
2018-10-11T20:17:06.285Z,19.30
2018-10-11T20:19:36.188Z,19.44
2018-10-11T20:22:06.337Z,19.55
2018-10-11T20:24:36.294Z,19.56
2018-10-11T20:27:06.695Z,19.63
2018-10-11T20:29:37.194Z,18.96
2018-10-11T20:32:07.414Z,18.75
2018-10-11T20:34:37.451Z,19.01
2018-10-11T20:37:08.215Z,19.09
2018-10-11T20:39:38.173Z,19.24
2018-10-11T20:42:08.411Z,18.99
2018-10-11T20:44:38.432Z,18.73
2018-10-11T20:47:09.239Z,18.65
2018-10-11T20:49:39.396Z,19.13
2018-10-11T20:52:09.497Z,18.97
2018-10-11T20:54:39.612Z,19.18
2018-10-11T20:57:10.458Z,19.33
2018-10-11T20:59:40.677Z,18.85
2018-10-11T21:02:10.834Z,18.71
2018-10-11T21:04:40.898Z,18.68
2018-10-11T21:07:11.034Z,18.50
2018-10-11T21:09:41.131Z,18.29
2018-10-11T21:12:11.171Z,18.14
2018-10-11T21:14:41.463Z,17.93
2018-10-11T21:17:12.355Z,17.99
2018-10-11T21:19:42.381Z,17.96
2018-10-11T21:22:12.432Z,17.99
2018-10-11T21:24:42.405Z,18.06
2018-10-11T21:27:13.392Z,18.21
2018-10-11T21:29:43.446Z,18.15
2018-10-11T21:32:13.794Z,18.12
2018-10-11T21:34:43.845Z,18.21
2018-10-11T21:37:14.477Z,18.08
2018-10-11T21:39:44.547Z,17.86
2018-10-11T21:42:14.483Z,17.66
2018-10-11T21:44:44.439Z,17.57
2018-10-11T21:47:15.684Z,17.58
2018-10-11T21:49:45.853Z,17.69
2018-10-11T21:52:15.799Z,18.15
2018-10-11T21:54:45.940Z,18.35
2018-10-11T21:57:15.844Z,18.14
2018-10-11T21:59:46.085Z,17.96
2018-10-11T22:02:16.151Z,17.78
2018-10-11T22:04:46.146Z,17.81
2018-10-11T22:07:16.363Z,17.86
2018-10-11T22:09:46.390Z,17.89
2018-10-11T22:12:16.523Z,17.72
2018-10-11T22:14:46.753Z,17.98
2018-10-11T22:17:17.951Z,17.78
2018-10-11T22:19:47.980Z,17.76
2018-10-11T22:22:18.056Z,17.72
2018-10-11T22:24:48.081Z,17.82
2018-10-11T22:27:18.813Z,17.98
2018-10-11T22:29:48.891Z,18.11
2018-10-11T22:32:18.980Z,17.88
2018-10-11T22:34:49.091Z,18.19
2018-10-11T22:37:19.064Z,17.97
2018-10-11T22:39:49.169Z,17.58
2018-10-11T22:42:19.280Z,17.58
2018-10-11T22:44:49.348Z,17.65
2018-10-11T22:47:19.718Z,18.09
2018-10-11T22:49:49.783Z,18.23
2018-10-11T22:52:19.897Z,18.47
2018-10-11T22:54:49.936Z,18.20
2018-10-11T22:57:20.719Z,18.22
2018-10-11T22:59:50.910Z,18.21
2018-10-11T23:02:21.065Z,17.97
2018-10-11T23:04:51.180Z,17.91
2018-10-11T23:07:21.249Z,18.29
2018-10-11T23:09:51.289Z,18.20
2018-10-11T23:12:21.383Z,18.25
2018-10-11T23:14:52.020Z,17.97
2018-10-11T23:17:22.426Z,17.76
2018-10-11T23:19:52.508Z,17.92
2018-10-11T23:22:22.549Z,18.41
2018-10-11T23:24:52.674Z,18.01
2018-10-11T23:27:22.756Z,17.84
2018-10-11T23:29:52.904Z,17.95
2018-10-11T23:32:22.867Z,17.72
2018-10-11T23:34:52.877Z,17.99
2018-10-11T23:37:23.896Z,18.45
2018-10-11T23:39:54.023Z,17.90
2018-10-11T23:42:24.101Z,17.92
2018-10-11T23:44:54.209Z,17.82
2018-10-11T23:47:24.688Z,17.99
2018-10-11T23:49:54.838Z,17.82
2018-10-11T23:52:24.891Z,17.70
2018-10-11T23:54:55.118Z,17.72
2018-10-11T23:57:25.416Z,17.62
2018-10-11T23:59:55.528Z,17.91
